sensor_id;sensor_type;location;lat;lon;timestamp;temperature;humidity
68433;DHT22;55412;51.350;17.056;2023-08-20T00:01:56;22.10;74.60
68433;DHT22;55412;51.350;17.056;2023-08-20T00:04:26;22.00;74.90
68433;DHT22;55412;51.350;17.056;2023-08-20T00:06:53;22.00;75.10
68433;DHT22;55412;51.350;17.056;2023-08-20T00:09:19;22.00;75.40
68433;DHT22;55412;51.350;17.056;2023-08-20T00:11:45;21.90;75.50
68433;DHT22;55412;51.350;17.056;2023-08-20T00:14:16;21.90;75.60
68433;DHT22;55412;51.350;17.056;2023-08-20T00:16:43;21.90;75.70
68433;DHT22;55412;51.350;17.056;2023-08-20T00:19:10;21.90;75.90
68433;DHT22;55412;51.350;17.056;2023-08-20T00:21:43;21.90;75.80
68433;DHT22;55412;51.350;17.056;2023-08-20T00:24:11;21.90;75.80
68433;DHT22;55412;51.350;17.056;2023-08-20T00:26:38;21.80;75.60
68433;DHT22;55412;51.350;17.056;2023-08-20T00:29:04;21.70;74.60
68433;DHT22;55412;51.350;17.056;2023-08-20T00:31:31;21.70;75.20
68433;DHT22;55412;51.350;17.056;2023-08-20T00:33:57;21.60;75.50
68433;DHT22;55412;51.350;17.056;2023-08-20T00:36:23;21.50;76.10
68433;DHT22;55412;51.350;17.056;2023-08-20T00:38:49;21.50;76.50
68433;DHT22;55412;51.350;17.056;2023-08-20T00:41:15;21.50;76.60
68433;DHT22;55412;51.350;17.056;2023-08-20T00:43:41;21.50;76.50
68433;DHT22;55412;51.350;17.056;2023-08-20T00:46:07;21.50;76.40
68433;DHT22;55412;51.350;17.056;2023-08-20T00:48:35;21.50;76.60
68433;DHT22;55412;51.350;17.056;2023-08-20T00:51:01;21.50;76.70
68433;DHT22;55412;51.350;17.056;2023-08-20T00:53:28;21.50;77.10
68433;DHT22;55412;51.350;17.056;2023-08-20T00:55:54;21.50;77.20
68433;DHT22;55412;51.350;17.056;2023-08-20T00:58:20;21.50;77.10
68433;DHT22;55412;51.350;17.056;2023-08-20T01:00:46;21.50;77.10
68433;DHT22;55412;51.350;17.056;2023-08-20T01:03:12;21.50;76.90
68433;DHT22;55412;51.350;17.056;2023-08-20T01:05:44;21.50;76.80
68433;DHT22;55412;51.350;17.056;2023-08-20T01:08:33;21.50;76.60
68433;DHT22;55412;51.350;17.056;2023-08-20T01:11:10;21.50;76.60
68433;DHT22;55412;51.350;17.056;2023-08-20T01:13:40;21.50;76.40
68433;DHT22;55412;51.350;17.056;2023-08-20T01:16:09;21.50;76.40
68433;DHT22;55412;51.350;17.056;2023-08-20T01:18:35;21.50;76.40
68433;DHT22;55412;51.350;17.056;2023-08-20T01:21:04;21.50;76.60
68433;DHT22;55412;51.350;17.056;2023-08-20T01:26:54;21.50;75.70
68433;DHT22;55412;51.350;17.056;2023-08-20T01:29:27;21.40;76.30
68433;DHT22;55412;51.350;17.056;2023-08-20T01:31:54;21.40;76.70
68433;DHT22;55412;51.350;17.056;2023-08-20T01:34:21;21.40;76.70
68433;DHT22;55412;51.350;17.056;2023-08-20T01:36:47;21.40;77.00
68433;DHT22;55412;51.350;17.056;2023-08-20T01:39:16;21.40;77.00
68433;DHT22;55412;51.350;17.056;2023-08-20T01:41:44;21.40;77.20
68433;DHT22;55412;51.350;17.056;2023-08-20T01:44:10;21.40;77.10
68433;DHT22;55412;51.350;17.056;2023-08-20T01:46:36;21.40;77.40
68433;DHT22;55412;51.350;17.056;2023-08-20T01:49:02;21.40;77.70
68433;DHT22;55412;51.350;17.056;2023-08-20T01:51:29;21.40;77.70
68433;DHT22;55412;51.350;17.056;2023-08-20T01:53:55;21.40;78.00
68433;DHT22;55412;51.350;17.056;2023-08-20T01:56:21;21.40;78.10
68433;DHT22;55412;51.350;17.056;2023-08-20T01:58:47;21.40;77.90
68433;DHT22;55412;51.350;17.056;2023-08-20T02:01:13;21.40;77.40
68433;DHT22;55412;51.350;17.056;2023-08-20T02:03:39;21.40;77.30
68433;DHT22;55412;51.350;17.056;2023-08-20T02:06:06;21.40;77.00
68433;DHT22;55412;51.350;17.056;2023-08-20T02:08:32;21.40;77.20
68433;DHT22;55412;51.350;17.056;2023-08-20T02:11:04;21.40;77.00
68433;DHT22;55412;51.350;17.056;2023-08-20T02:13:31;21.30;76.20
68433;DHT22;55412;51.350;17.056;2023-08-20T02:16:02;21.30;75.80
68433;DHT22;55412;51.350;17.056;2023-08-20T02:18:30;21.30;75.50
68433;DHT22;55412;51.350;17.056;2023-08-20T02:20:56;21.20;75.50
68433;DHT22;55412;51.350;17.056;2023-08-20T02:23:23;21.20;75.80
68433;DHT22;55412;51.350;17.056;2023-08-20T02:25:49;21.20;76.00
68433;DHT22;55412;51.350;17.056;2023-08-20T02:28:15;21.10;76.40
68433;DHT22;55412;51.350;17.056;2023-08-20T02:30:43;21.10;75.80
68433;DHT22;55412;51.350;17.056;2023-08-20T02:33:11;21.00;75.60
68433;DHT22;55412;51.350;17.056;2023-08-20T02:35:40;21.00;75.70
68433;DHT22;55412;51.350;17.056;2023-08-20T02:38:06;20.90;75.90
68433;DHT22;55412;51.350;17.056;2023-08-20T02:40:39;20.90;76.20
68433;DHT22;55412;51.350;17.056;2023-08-20T02:43:09;20.90;76.30
68433;DHT22;55412;51.350;17.056;2023-08-20T02:45:42;20.80;76.90
68433;DHT22;55412;51.350;17.056;2023-08-20T02:48:08;20.80;76.50
68433;DHT22;55412;51.350;17.056;2023-08-20T02:50:35;20.80;75.60
68433;DHT22;55412;51.350;17.056;2023-08-20T02:53:02;20.70;75.70
68433;DHT22;55412;51.350;17.056;2023-08-20T02:55:29;20.70;76.80
68433;DHT22;55412;51.350;17.056;2023-08-20T02:57:56;20.60;77.10
68433;DHT22;55412;51.350;17.056;2023-08-20T03:00:22;20.60;77.90
68433;DHT22;55412;51.350;17.056;2023-08-20T03:02:48;20.60;78.80
68433;DHT22;55412;51.350;17.056;2023-08-20T03:05:15;20.50;79.10
68433;DHT22;55412;51.350;17.056;2023-08-20T03:07:41;20.50;77.80
68433;DHT22;55412;51.350;17.056;2023-08-20T03:10:07;20.40;78.40
68433;DHT22;55412;51.350;17.056;2023-08-20T03:12:33;20.40;78.30
68433;DHT22;55412;51.350;17.056;2023-08-20T03:15:00;20.50;79.00
68433;DHT22;55412;51.350;17.056;2023-08-20T03:17:26;20.50;79.60
68433;DHT22;55412;51.350;17.056;2023-08-20T03:19:59;20.40;79.50
68433;DHT22;55412;51.350;17.056;2023-08-20T03:22:27;20.40;78.00
68433;DHT22;55412;51.350;17.056;2023-08-20T03:24:53;20.40;77.80
68433;DHT22;55412;51.350;17.056;2023-08-20T03:27:20;20.30;78.00
68433;DHT22;55412;51.350;17.056;2023-08-20T03:29:46;20.30;78.00
68433;DHT22;55412;51.350;17.056;2023-08-20T03:32:12;20.30;78.70
68433;DHT22;55412;51.350;17.056;2023-08-20T03:34:38;20.30;79.50
68433;DHT22;55412;51.350;17.056;2023-08-20T03:37:04;20.30;79.60
68433;DHT22;55412;51.350;17.056;2023-08-20T03:39:31;20.30;79.30
68433;DHT22;55412;51.350;17.056;2023-08-20T03:41:57;20.30;79.00
68433;DHT22;55412;51.350;17.056;2023-08-20T03:44:23;20.30;79.30
68433;DHT22;55412;51.350;17.056;2023-08-20T03:46:50;20.30;79.10
68433;DHT22;55412;51.350;17.056;2023-08-20T03:49:16;20.30;79.20
68433;DHT22;55412;51.350;17.056;2023-08-20T03:51:42;20.30;79.50
68433;DHT22;55412;51.350;17.056;2023-08-20T03:54:08;20.40;79.90
68433;DHT22;55412;51.350;17.056;2023-08-20T03:56:35;20.40;79.90
68433;DHT22;55412;51.350;17.056;2023-08-20T03:59:02;20.30;79.50
68433;DHT22;55412;51.350;17.056;2023-08-20T04:01:28;20.30;78.30
68433;DHT22;55412;51.350;17.056;2023-08-20T04:03:54;20.20;78.00
68433;DHT22;55412;51.350;17.056;2023-08-20T04:06:20;20.20;78.30
68433;DHT22;55412;51.350;17.056;2023-08-20T04:08:47;20.20;79.00
68433;DHT22;55412;51.350;17.056;2023-08-20T04:11:13;20.20;79.60
68433;DHT22;55412;51.350;17.056;2023-08-20T04:13:39;20.20;79.60
68433;DHT22;55412;51.350;17.056;2023-08-20T04:16:08;20.30;80.20
68433;DHT22;55412;51.350;17.056;2023-08-20T04:18:35;20.30;81.00
68433;DHT22;55412;51.350;17.056;2023-08-20T04:21:01;20.40;81.10
68433;DHT22;55412;51.350;17.056;2023-08-20T04:23:27;20.40;81.20
68433;DHT22;55412;51.350;17.056;2023-08-20T04:25:53;20.40;81.20
68433;DHT22;55412;51.350;17.056;2023-08-20T04:28:19;20.40;81.10
68433;DHT22;55412;51.350;17.056;2023-08-20T04:30:45;20.50;81.30
68433;DHT22;55412;51.350;17.056;2023-08-20T04:33:12;20.50;81.40
68433;DHT22;55412;51.350;17.056;2023-08-20T04:35:38;20.60;81.40
68433;DHT22;55412;51.350;17.056;2023-08-20T04:38:04;20.60;81.60
68433;DHT22;55412;51.350;17.056;2023-08-20T04:40:30;20.70;81.50
68433;DHT22;55412;51.350;17.056;2023-08-20T04:42:57;20.80;81.40
68433;DHT22;55412;51.350;17.056;2023-08-20T04:45:23;20.80;81.60
68433;DHT22;55412;51.350;17.056;2023-08-20T04:47:49;20.90;81.70
68433;DHT22;55412;51.350;17.056;2023-08-20T04:50:15;21.00;82.00
68433;DHT22;55412;51.350;17.056;2023-08-20T04:52:41;21.10;81.90
68433;DHT22;55412;51.350;17.056;2023-08-20T04:55:07;21.30;81.70
68433;DHT22;55412;51.350;17.056;2023-08-20T04:57:34;21.40;81.60
68433;DHT22;55412;51.350;17.056;2023-08-20T05:00:00;21.60;81.50
68433;DHT22;55412;51.350;17.056;2023-08-20T05:02:26;21.80;81.70
68433;DHT22;55412;51.350;17.056;2023-08-20T05:04:53;22.00;81.70
68433;DHT22;55412;51.350;17.056;2023-08-20T05:07:19;22.20;81.50
68433;DHT22;55412;51.350;17.056;2023-08-20T05:09:46;22.40;81.10
68433;DHT22;55412;51.350;17.056;2023-08-20T05:12:12;22.70;80.70
68433;DHT22;55412;51.350;17.056;2023-08-20T05:14:38;22.90;80.40
68433;DHT22;55412;51.350;17.056;2023-08-20T05:17:04;23.20;79.80
68433;DHT22;55412;51.350;17.056;2023-08-20T05:19:30;23.50;79.20
68433;DHT22;55412;51.350;17.056;2023-08-20T05:21:56;23.70;78.30
68433;DHT22;55412;51.350;17.056;2023-08-20T05:24:25;24.00;76.90
68433;DHT22;55412;51.350;17.056;2023-08-20T05:27:07;24.30;75.20
68433;DHT22;55412;51.350;17.056;2023-08-20T05:29:36;24.70;73.80
68433;DHT22;55412;51.350;17.056;2023-08-20T05:32:03;25.00;73.30
68433;DHT22;55412;51.350;17.056;2023-08-20T05:34:29;25.20;72.10
68433;DHT22;55412;51.350;17.056;2023-08-20T05:36:55;25.40;71.60
68433;DHT22;55412;51.350;17.056;2023-08-20T05:39:21;25.70;71.20
68433;DHT22;55412;51.350;17.056;2023-08-20T05:41:49;25.90;71.50
68433;DHT22;55412;51.350;17.056;2023-08-20T05:44:15;26.10;71.30
68433;DHT22;55412;51.350;17.056;2023-08-20T05:46:41;26.30;71.00
68433;DHT22;55412;51.350;17.056;2023-08-20T05:49:08;26.50;70.20
68433;DHT22;55412;51.350;17.056;2023-08-20T05:51:34;26.80;69.30
68433;DHT22;55412;51.350;17.056;2023-08-20T05:54:00;27.00;68.50
68433;DHT22;55412;51.350;17.056;2023-08-20T05:56:26;27.20;68.00
68433;DHT22;55412;51.350;17.056;2023-08-20T05:58:52;27.50;67.80
68433;DHT22;55412;51.350;17.056;2023-08-20T06:01:18;27.70;66.80
68433;DHT22;55412;51.350;17.056;2023-08-20T06:03:45;27.90;65.00
68433;DHT22;55412;51.350;17.056;2023-08-20T06:06:11;28.10;65.50
68433;DHT22;55412;51.350;17.056;2023-08-20T06:08:37;28.30;64.90
68433;DHT22;55412;51.350;17.056;2023-08-20T06:11:03;28.50;64.00
68433;DHT22;55412;51.350;17.056;2023-08-20T06:13:29;28.70;62.60
68433;DHT22;55412;51.350;17.056;2023-08-20T06:15:55;29.00;60.90
68433;DHT22;55412;51.350;17.056;2023-08-20T06:18:21;29.20;62.30
68433;DHT22;55412;51.350;17.056;2023-08-20T06:20:47;29.30;62.20
68433;DHT22;55412;51.350;17.056;2023-08-20T06:23:14;29.50;60.70
68433;DHT22;55412;51.350;17.056;2023-08-20T06:25:40;29.70;61.40
68433;DHT22;55412;51.350;17.056;2023-08-20T06:28:06;29.90;60.40
68433;DHT22;55412;51.350;17.056;2023-08-20T06:30:34;30.10;58.90
68433;DHT22;55412;51.350;17.056;2023-08-20T06:33:00;30.30;57.40
68433;DHT22;55412;51.350;17.056;2023-08-20T06:35:26;30.40;58.10
68433;DHT22;55412;51.350;17.056;2023-08-20T06:37:53;30.60;57.90
68433;DHT22;55412;51.350;17.056;2023-08-20T06:40:19;30.80;56.40
68433;DHT22;55412;51.350;17.056;2023-08-20T06:42:45;30.90;57.50
68433;DHT22;55412;51.350;17.056;2023-08-20T06:45:12;31.10;57.80
68433;DHT22;55412;51.350;17.056;2023-08-20T06:47:38;31.20;57.60
68433;DHT22;55412;51.350;17.056;2023-08-20T06:50:04;31.40;57.20
68433;DHT22;55412;51.350;17.056;2023-08-20T06:52:31;31.60;55.90
68433;DHT22;55412;51.350;17.056;2023-08-20T06:54:57;31.80;55.20
68433;DHT22;55412;51.350;17.056;2023-08-20T06:57:23;31.90;55.90
68433;DHT22;55412;51.350;17.056;2023-08-20T06:59:50;32.10;56.50
68433;DHT22;55412;51.350;17.056;2023-08-20T07:02:16;32.30;56.30
68433;DHT22;55412;51.350;17.056;2023-08-20T07:04:42;32.50;55.90
68433;DHT22;55412;51.350;17.056;2023-08-20T07:07:08;32.70;55.00
68433;DHT22;55412;51.350;17.056;2023-08-20T07:09:35;32.90;54.30
68433;DHT22;55412;51.350;17.056;2023-08-20T07:12:01;33.10;53.20
68433;DHT22;55412;51.350;17.056;2023-08-20T07:14:28;33.30;52.90
68433;DHT22;55412;51.350;17.056;2023-08-20T07:16:54;33.50;50.30
68433;DHT22;55412;51.350;17.056;2023-08-20T07:19:20;33.70;51.30
68433;DHT22;55412;51.350;17.056;2023-08-20T07:21:47;33.90;50.20
68433;DHT22;55412;51.350;17.056;2023-08-20T07:24:13;34.10;49.30
68433;DHT22;55412;51.350;17.056;2023-08-20T07:26:42;34.20;49.30
68433;DHT22;55412;51.350;17.056;2023-08-20T07:29:15;34.30;48.60
68433;DHT22;55412;51.350;17.056;2023-08-20T07:31:41;34.50;48.10
68433;DHT22;55412;51.350;17.056;2023-08-20T07:34:07;34.60;47.20
68433;DHT22;55412;51.350;17.056;2023-08-20T07:36:33;34.70;46.70
68433;DHT22;55412;51.350;17.056;2023-08-20T07:39:00;34.90;46.70
68433;DHT22;55412;51.350;17.056;2023-08-20T07:41:26;35.00;46.10
68433;DHT22;55412;51.350;17.056;2023-08-20T07:43:53;35.10;46.10
68433;DHT22;55412;51.350;17.056;2023-08-20T07:46:20;35.20;46.20
68433;DHT22;55412;51.350;17.056;2023-08-20T07:48:56;35.30;45.50
68433;DHT22;55412;51.350;17.056;2023-08-20T07:51:23;35.40;46.10
68433;DHT22;55412;51.350;17.056;2023-08-20T07:53:49;35.50;45.80
68433;DHT22;55412;51.350;17.056;2023-08-20T07:56:15;35.60;45.50
68433;DHT22;55412;51.350;17.056;2023-08-20T07:58:41;35.60;45.40
68433;DHT22;55412;51.350;17.056;2023-08-20T08:01:07;35.60;45.10
68433;DHT22;55412;51.350;17.056;2023-08-20T08:03:33;35.60;44.90
68433;DHT22;55412;51.350;17.056;2023-08-20T08:05:59;35.50;44.00
68433;DHT22;55412;51.350;17.056;2023-08-20T08:08:26;35.50;44.40
68433;DHT22;55412;51.350;17.056;2023-08-20T08:10:52;35.40;44.00
68433;DHT22;55412;51.350;17.056;2023-08-20T08:13:21;35.30;43.60
68433;DHT22;55412;51.350;17.056;2023-08-20T08:15:49;35.20;43.30
68433;DHT22;55412;51.350;17.056;2023-08-20T08:18:16;35.10;43.80
68433;DHT22;55412;51.350;17.056;2023-08-20T08:20:42;35.00;44.60
68433;DHT22;55412;51.350;17.056;2023-08-20T08:23:08;35.00;43.80
68433;DHT22;55412;51.350;17.056;2023-08-20T08:25:35;34.90;43.80
68433;DHT22;55412;51.350;17.056;2023-08-20T08:28:01;34.80;44.00
68433;DHT22;55412;51.350;17.056;2023-08-20T08:30:27;34.80;45.20
68433;DHT22;55412;51.350;17.056;2023-08-20T08:32:55;34.70;45.20
68433;DHT22;55412;51.350;17.056;2023-08-20T08:35:21;34.60;46.10
68433;DHT22;55412;51.350;17.056;2023-08-20T08:37:47;34.60;46.10
68433;DHT22;55412;51.350;17.056;2023-08-20T08:40:14;34.50;46.90
68433;DHT22;55412;51.350;17.056;2023-08-20T08:42:41;34.50;45.80
68433;DHT22;55412;51.350;17.056;2023-08-20T08:45:10;34.50;46.90
68433;DHT22;55412;51.350;17.056;2023-08-20T08:47:38;34.40;47.00
68433;DHT22;55412;51.350;17.056;2023-08-20T08:50:09;34.40;46.00
68433;DHT22;55412;51.350;17.056;2023-08-20T08:52:37;34.30;45.40
68433;DHT22;55412;51.350;17.056;2023-08-20T08:55:05;34.20;46.60
68433;DHT22;55412;51.350;17.056;2023-08-20T08:57:36;34.10;46.30
68433;DHT22;55412;51.350;17.056;2023-08-20T09:00:03;34.00;46.20
68433;DHT22;55412;51.350;17.056;2023-08-20T09:02:31;34.00;46.00
68433;DHT22;55412;51.350;17.056;2023-08-20T09:04:58;33.80;47.00
68433;DHT22;55412;51.350;17.056;2023-08-20T09:07:25;33.70;46.60
68433;DHT22;55412;51.350;17.056;2023-08-20T09:09:58;33.60;46.80
68433;DHT22;55412;51.350;17.056;2023-08-20T09:12:28;33.50;47.20
68433;DHT22;55412;51.350;17.056;2023-08-20T09:15:00;33.40;46.80
68433;DHT22;55412;51.350;17.056;2023-08-20T09:17:28;33.20;47.30
68433;DHT22;55412;51.350;17.056;2023-08-20T09:19:55;33.10;47.30
68433;DHT22;55412;51.350;17.056;2023-08-20T09:22:26;33.00;47.80
68433;DHT22;55412;51.350;17.056;2023-08-20T09:24:54;32.90;47.10
68433;DHT22;55412;51.350;17.056;2023-08-20T09:27:21;32.80;48.20
68433;DHT22;55412;51.350;17.056;2023-08-20T09:29:50;32.70;47.90
68433;DHT22;55412;51.350;17.056;2023-08-20T09:32:24;32.60;48.00
68433;DHT22;55412;51.350;17.056;2023-08-20T09:34:53;32.50;48.70
68433;DHT22;55412;51.350;17.056;2023-08-20T09:37:22;32.40;49.70
68433;DHT22;55412;51.350;17.056;2023-08-20T09:39:49;32.30;48.70
68433;DHT22;55412;51.350;17.056;2023-08-20T09:42:16;32.20;49.60
68433;DHT22;55412;51.350;17.056;2023-08-20T09:44:45;32.10;50.10
68433;DHT22;55412;51.350;17.056;2023-08-20T09:47:16;32.10;50.50
68433;DHT22;55412;51.350;17.056;2023-08-20T09:49:47;32.00;50.00
68433;DHT22;55412;51.350;17.056;2023-08-20T09:52:33;31.90;50.50
68433;DHT22;55412;51.350;17.056;2023-08-20T09:55:11;31.80;50.50
68433;DHT22;55412;51.350;17.056;2023-08-20T09:57:45;31.70;51.20
68433;DHT22;55412;51.350;17.056;2023-08-20T10:00:14;31.70;52.60
68433;DHT22;55412;51.350;17.056;2023-08-20T10:02:44;31.60;53.20
68433;DHT22;55412;51.350;17.056;2023-08-20T10:05:11;31.60;53.20
68433;DHT22;55412;51.350;17.056;2023-08-20T10:07:39;31.60;52.30
68433;DHT22;55412;51.350;17.056;2023-08-20T10:10:09;31.60;53.70
68433;DHT22;55412;51.350;17.056;2023-08-20T10:12:40;31.60;54.00
68433;DHT22;55412;51.350;17.056;2023-08-20T10:15:12;31.60;53.40
68433;DHT22;55412;51.350;17.056;2023-08-20T10:17:41;31.70;54.10
68433;DHT22;55412;51.350;17.056;2023-08-20T10:20:09;31.80;51.50
68433;DHT22;55412;51.350;17.056;2023-08-20T10:22:40;31.80;49.70
68433;DHT22;55412;51.350;17.056;2023-08-20T10:25:21;31.90;49.70
68433;DHT22;55412;51.350;17.056;2023-08-20T10:27:51;32.00;51.80
68433;DHT22;55412;51.350;17.056;2023-08-20T10:30:25;32.00;51.00
68433;DHT22;55412;51.350;17.056;2023-08-20T10:32:53;32.00;50.70
68433;DHT22;55412;51.350;17.056;2023-08-20T10:35:26;32.10;50.00
68433;DHT22;55412;51.350;17.056;2023-08-20T10:38:12;32.10;49.50
68433;DHT22;55412;51.350;17.056;2023-08-20T10:40:56;32.20;49.00
68433;DHT22;55412;51.350;17.056;2023-08-20T10:43:46;32.20;48.10
68433;DHT22;55412;51.350;17.056;2023-08-20T10:46:22;32.20;48.10
68433;DHT22;55412;51.350;17.056;2023-08-20T10:48:55;32.20;47.90
68433;DHT22;55412;51.350;17.056;2023-08-20T10:51:29;32.20;48.00
68433;DHT22;55412;51.350;17.056;2023-08-20T10:56:47;32.10;48.50
68433;DHT22;55412;51.350;17.056;2023-08-20T10:59:32;32.10;47.70
68433;DHT22;55412;51.350;17.056;2023-08-20T11:02:01;32.10;48.20
68433;DHT22;55412;51.350;17.056;2023-08-20T11:04:30;32.10;47.80
68433;DHT22;55412;51.350;17.056;2023-08-20T11:07:01;32.10;47.10
68433;DHT22;55412;51.350;17.056;2023-08-20T11:09:30;32.10;46.70
68433;DHT22;55412;51.350;17.056;2023-08-20T11:11:58;32.10;49.20
68433;DHT22;55412;51.350;17.056;2023-08-20T11:14:25;32.10;48.40
68433;DHT22;55412;51.350;17.056;2023-08-20T11:16:51;32.10;50.80
68433;DHT22;55412;51.350;17.056;2023-08-20T11:19:22;32.10;49.40
68433;DHT22;55412;51.350;17.056;2023-08-20T11:21:49;32.10;50.10
68433;DHT22;55412;51.350;17.056;2023-08-20T11:24:16;32.20;50.00
68433;DHT22;55412;51.350;17.056;2023-08-20T11:26:43;32.20;50.60
68433;DHT22;55412;51.350;17.056;2023-08-20T11:29:11;32.20;48.20
68433;DHT22;55412;51.350;17.056;2023-08-20T11:31:39;32.30;48.90
68433;DHT22;55412;51.350;17.056;2023-08-20T11:34:06;32.30;48.10
68433;DHT22;55412;51.350;17.056;2023-08-20T11:36:36;32.40;48.20
68433;DHT22;55412;51.350;17.056;2023-08-20T11:39:05;32.40;48.20
68433;DHT22;55412;51.350;17.056;2023-08-20T11:41:31;32.40;48.20
68433;DHT22;55412;51.350;17.056;2023-08-20T11:43:57;32.40;47.20
68433;DHT22;55412;51.350;17.056;2023-08-20T11:46:26;32.40;46.30
68433;DHT22;55412;51.350;17.056;2023-08-20T11:51:43;32.50;47.40
68433;DHT22;55412;51.350;17.056;2023-08-20T11:54:15;32.50;47.00
68433;DHT22;55412;51.350;17.056;2023-08-20T11:57:01;32.50;46.90
68433;DHT22;55412;51.350;17.056;2023-08-20T11:59:30;32.50;46.90
68433;DHT22;55412;51.350;17.056;2023-08-20T12:02:01;32.50;49.50
68433;DHT22;55412;51.350;17.056;2023-08-20T12:04:31;32.60;48.70
68433;DHT22;55412;51.350;17.056;2023-08-20T12:07:14;32.60;47.10
68433;DHT22;55412;51.350;17.056;2023-08-20T12:09:41;32.60;45.70
68433;DHT22;55412;51.350;17.056;2023-08-20T12:12:08;32.60;48.10
68433;DHT22;55412;51.350;17.056;2023-08-20T12:14:35;32.60;45.70
68433;DHT22;55412;51.350;17.056;2023-08-20T12:17:02;32.60;45.30
68433;DHT22;55412;51.350;17.056;2023-08-20T12:19:31;32.60;46.90
68433;DHT22;55412;51.350;17.056;2023-08-20T12:21:57;32.60;47.00
68433;DHT22;55412;51.350;17.056;2023-08-20T12:24:23;32.60;47.00
68433;DHT22;55412;51.350;17.056;2023-08-20T12:26:51;32.60;46.90
68433;DHT22;55412;51.350;17.056;2023-08-20T12:29:18;32.60;48.90
68433;DHT22;55412;51.350;17.056;2023-08-20T12:31:45;32.60;46.10
68433;DHT22;55412;51.350;17.056;2023-08-20T12:34:11;32.50;48.00
68433;DHT22;55412;51.350;17.056;2023-08-20T12:36:37;32.50;47.50
68433;DHT22;55412;51.350;17.056;2023-08-20T12:39:04;32.60;47.50
68433;DHT22;55412;51.350;17.056;2023-08-20T12:41:31;32.60;48.20
68433;DHT22;55412;51.350;17.056;2023-08-20T12:43:59;32.60;47.00
68433;DHT22;55412;51.350;17.056;2023-08-20T12:46:26;32.50;45.60
68433;DHT22;55412;51.350;17.056;2023-08-20T12:48:52;32.50;46.40
68433;DHT22;55412;51.350;17.056;2023-08-20T12:51:18;32.50;45.50
68433;DHT22;55412;51.350;17.056;2023-08-20T12:53:45;32.50;47.20
68433;DHT22;55412;51.350;17.056;2023-08-20T12:56:11;32.50;46.40
68433;DHT22;55412;51.350;17.056;2023-08-20T12:58:37;32.50;47.20
68433;DHT22;55412;51.350;17.056;2023-08-20T13:01:03;32.40;45.30
68433;DHT22;55412;51.350;17.056;2023-08-20T13:03:30;32.40;46.50
68433;DHT22;55412;51.350;17.056;2023-08-20T13:05:57;32.40;47.10
68433;DHT22;55412;51.350;17.056;2023-08-20T13:08:24;32.40;46.60
68433;DHT22;55412;51.350;17.056;2023-08-20T13:10:54;32.40;47.50
68433;DHT22;55412;51.350;17.056;2023-08-20T13:13:22;32.40;47.40
68433;DHT22;55412;51.350;17.056;2023-08-20T13:15:52;32.30;48.10
68433;DHT22;55412;51.350;17.056;2023-08-20T13:18:20;32.30;45.70
68433;DHT22;55412;51.350;17.056;2023-08-20T13:20:53;32.30;46.30
68433;DHT22;55412;51.350;17.056;2023-08-20T13:23:20;32.30;46.10
68433;DHT22;55412;51.350;17.056;2023-08-20T13:25:46;32.30;46.70
68433;DHT22;55412;51.350;17.056;2023-08-20T13:28:12;32.30;46.60
68433;DHT22;55412;51.350;17.056;2023-08-20T13:30:38;32.30;45.70
68433;DHT22;55412;51.350;17.056;2023-08-20T13:33:05;32.30;45.30
68433;DHT22;55412;51.350;17.056;2023-08-20T13:35:31;32.30;45.20
68433;DHT22;55412;51.350;17.056;2023-08-20T13:37:57;32.30;46.10
68433;DHT22;55412;51.350;17.056;2023-08-20T13:40:23;32.30;46.60
68433;DHT22;55412;51.350;17.056;2023-08-20T13:42:50;32.30;47.60
68433;DHT22;55412;51.350;17.056;2023-08-20T13:45:16;32.30;47.90
68433;DHT22;55412;51.350;17.056;2023-08-20T13:47:42;32.30;46.00
68433;DHT22;55412;51.350;17.056;2023-08-20T13:50:10;32.30;44.40
68433;DHT22;55412;51.350;17.056;2023-08-20T13:52:36;32.30;46.80
68433;DHT22;55412;51.350;17.056;2023-08-20T13:55:03;32.40;47.00
68433;DHT22;55412;51.350;17.056;2023-08-20T13:57:32;32.40;45.10
68433;DHT22;55412;51.350;17.056;2023-08-20T13:59:58;32.40;43.80
68433;DHT22;55412;51.350;17.056;2023-08-20T14:02:24;32.30;42.30
68433;DHT22;55412;51.350;17.056;2023-08-20T14:04:51;32.30;42.50
68433;DHT22;55412;51.350;17.056;2023-08-20T14:07:18;32.30;45.70
68433;DHT22;55412;51.350;17.056;2023-08-20T14:09:44;32.30;45.10
68433;DHT22;55412;51.350;17.056;2023-08-20T14:12:10;32.30;45.20
68433;DHT22;55412;51.350;17.056;2023-08-20T14:14:36;32.30;44.00
68433;DHT22;55412;51.350;17.056;2023-08-20T14:17:03;32.30;45.70
68433;DHT22;55412;51.350;17.056;2023-08-20T14:19:29;32.30;45.50
68433;DHT22;55412;51.350;17.056;2023-08-20T14:21:55;32.30;44.80
68433;DHT22;55412;51.350;17.056;2023-08-20T14:24:25;32.30;45.20
68433;DHT22;55412;51.350;17.056;2023-08-20T14:26:51;32.30;45.60
68433;DHT22;55412;51.350;17.056;2023-08-20T14:29:17;32.20;45.50
68433;DHT22;55412;51.350;17.056;2023-08-20T14:31:43;32.20;45.00
68433;DHT22;55412;51.350;17.056;2023-08-20T14:34:18;32.20;46.20
68433;DHT22;55412;51.350;17.056;2023-08-20T14:36:45;32.20;46.20
68433;DHT22;55412;51.350;17.056;2023-08-20T14:39:11;32.10;44.70
68433;DHT22;55412;51.350;17.056;2023-08-20T14:41:37;32.10;45.10
68433;DHT22;55412;51.350;17.056;2023-08-20T14:44:03;32.10;45.00
68433;DHT22;55412;51.350;17.056;2023-08-20T14:46:30;32.10;45.10
68433;DHT22;55412;51.350;17.056;2023-08-20T14:48:56;32.00;45.60
68433;DHT22;55412;51.350;17.056;2023-08-20T14:51:22;32.00;46.30
68433;DHT22;55412;51.350;17.056;2023-08-20T14:53:48;32.00;45.90
68433;DHT22;55412;51.350;17.056;2023-08-20T14:56:15;31.90;46.00
68433;DHT22;55412;51.350;17.056;2023-08-20T14:58:41;31.90;45.90
68433;DHT22;55412;51.350;17.056;2023-08-20T15:01:10;31.80;46.50
68433;DHT22;55412;51.350;17.056;2023-08-20T15:03:39;31.80;46.80
68433;DHT22;55412;51.350;17.056;2023-08-20T15:06:05;31.70;45.70
68433;DHT22;55412;51.350;17.056;2023-08-20T15:08:35;31.70;46.00
68433;DHT22;55412;51.350;17.056;2023-08-20T15:11:02;31.70;47.40
68433;DHT22;55412;51.350;17.056;2023-08-20T15:13:32;31.60;45.60
68433;DHT22;55412;51.350;17.056;2023-08-20T15:15:58;31.60;46.10
68433;DHT22;55412;51.350;17.056;2023-08-20T15:18:25;31.50;46.60
68433;DHT22;55412;51.350;17.056;2023-08-20T15:20:58;31.50;46.20
68433;DHT22;55412;51.350;17.056;2023-08-20T15:23:26;31.50;46.90
68433;DHT22;55412;51.350;17.056;2023-08-20T15:25:55;31.50;47.30
68433;DHT22;55412;51.350;17.056;2023-08-20T15:28:23;31.40;46.80